sensor_id;sensor_type;location;lat;lon;timestamp;pressure;altitude;pressure_sealevel;temperature;humidity
47080;BME280;33067;49.296;14.470;2024-01-15T00:01:52;95428.84;;;3.27;35.12
47080;BME280;33067;49.296;14.470;2024-01-15T00:04:18;95417.77;;;3.35;34.97
47080;BME280;33067;49.296;14.470;2024-01-15T00:06:43;95417.50;;;3.29;35.08
47080;BME280;33067;49.296;14.470;2024-01-15T00:09:09;95416.63;;;3.28;35.14
47080;BME280;33067;49.296;14.470;2024-01-15T00:11:34;95409.70;;;3.13;34.64
47080;BME280;33067;49.296;14.470;2024-01-15T00:14:00;95410.87;;;3.31;34.90
47080;BME280;33067;49.296;14.470;2024-01-15T00:16:25;95410.19;;;3.25;35.08
47080;BME280;33067;49.296;14.470;2024-01-15T00:18:51;95408.17;;;3.16;34.95
47080;BME280;33067;49.296;14.470;2024-01-15T00:21:17;95411.50;;;3.38;34.82
47080;BME280;33067;49.296;14.470;2024-01-15T00:23:43;95409.48;;;3.35;35.05
47080;BME280;33067;49.296;14.470;2024-01-15T00:26:13;95412.89;;;3.11;35.23
47080;BME280;33067;49.296;14.470;2024-01-15T00:28:32;95415.93;;;3.35;34.68
47080;BME280;33067;49.296;14.470;2024-01-15T00:30:58;95418.99;;;3.11;34.84
47080;BME280;33067;49.296;14.470;2024-01-15T00:33:24;95417.55;;;3.55;34.89
47080;BME280;33067;49.296;14.470;2024-01-15T00:35:50;95412.63;;;3.33;34.79
47080;BME280;33067;49.296;14.470;2024-01-15T00:38:15;95411.84;;;2.81;35.61
47080;BME280;33067;49.296;14.470;2024-01-15T00:40:40;95410.11;;;2.83;35.17
47080;BME280;33067;49.296;14.470;2024-01-15T00:43:05;95405.34;;;3.14;35.29
47080;BME280;33067;49.296;14.470;2024-01-15T00:45:30;95403.60;;;2.80;35.37
47080;BME280;33067;49.296;14.470;2024-01-15T00:47:55;95404.65;;;3.13;35.17
47080;BME280;33067;49.296;14.470;2024-01-15T00:50:20;95404.99;;;3.21;35.10
47080;BME280;33067;49.296;14.470;2024-01-15T00:52:46;95401.01;;;2.62;35.04
47080;BME280;33067;49.296;14.470;2024-01-15T00:55:11;95394.51;;;2.74;35.23
47080;BME280;33067;49.296;14.470;2024-01-15T00:57:37;95385.02;;;3.03;34.92
47080;BME280;33067;49.296;14.470;2024-01-15T01:00:03;95381.67;;;2.78;35.54
47080;BME280;33067;49.296;14.470;2024-01-15T01:02:27;95379.39;;;2.39;35.38
47080;BME280;33067;49.296;14.470;2024-01-15T01:04:53;95372.43;;;2.53;34.92
47080;BME280;33067;49.296;14.470;2024-01-15T01:07:20;95365.69;;;2.77;35.37
47080;BME280;33067;49.296;14.470;2024-01-15T01:09:44;95363.41;;;2.84;34.93
47080;BME280;33067;49.296;14.470;2024-01-15T01:12:10;95362.08;;;3.05;34.71
47080;BME280;33067;49.296;14.470;2024-01-15T01:14:35;95357.92;;;2.74;35.32
47080;BME280;33067;49.296;14.470;2024-01-15T01:17:01;95353.32;;;2.90;34.94
47080;BME280;33067;49.296;14.470;2024-01-15T01:19:32;95353.21;;;2.76;34.86
47080;BME280;33067;49.296;14.470;2024-01-15T01:21:52;95354.09;;;2.44;35.09
47080;BME280;33067;49.296;14.470;2024-01-15T01:24:17;95353.44;;;2.60;34.99
47080;BME280;33067;49.296;14.470;2024-01-15T01:26:43;95356.48;;;2.31;35.41
47080;BME280;33067;49.296;14.470;2024-01-15T01:29:09;95364.00;;;2.53;35.18
47080;BME280;33067;49.296;14.470;2024-01-15T01:31:34;95364.30;;;2.28;35.52
47080;BME280;33067;49.296;14.470;2024-01-15T01:34:06;95363.70;;;2.39;35.40
47080;BME280;33067;49.296;14.470;2024-01-15T01:36:25;95360.47;;;2.47;35.18
47080;BME280;33067;49.296;14.470;2024-01-15T01:38:53;95358.33;;;2.47;34.95
47080;BME280;33067;49.296;14.470;2024-01-15T01:41:17;95359.58;;;2.07;35.12
47080;BME280;33067;49.296;14.470;2024-01-15T01:43:43;95359.18;;;2.01;35.20
47080;BME280;33067;49.296;14.470;2024-01-15T01:46:09;95356.48;;;2.30;34.94
47080;BME280;33067;49.296;14.470;2024-01-15T01:48:34;95346.81;;;2.09;35.20
47080;BME280;33067;49.296;14.470;2024-01-15T01:51:02;95337.59;;;1.84;35.48
47080;BME280;33067;49.296;14.470;2024-01-15T01:53:26;95335.49;;;2.26;35.26
47080;BME280;33067;49.296;14.470;2024-01-15T01:55:58;95335.60;;;1.73;35.71
47080;BME280;33067;49.296;14.470;2024-01-15T01:58:19;95335.14;;;1.81;35.84
47080;BME280;33067;49.296;14.470;2024-01-15T02:00:43;95332.93;;;2.02;36.07
47080;BME280;33067;49.296;14.470;2024-01-15T02:03:14;95337.78;;;2.03;36.08
47080;BME280;33067;49.296;14.470;2024-01-15T02:05:35;95336.56;;;1.53;36.36
47080;BME280;33067;49.296;14.470;2024-01-15T02:08:00;95331.88;;;1.42;36.66
47080;BME280;33067;49.296;14.470;2024-01-15T02:10:26;95331.77;;;1.63;36.49
47080;BME280;33067;49.296;14.470;2024-01-15T02:12:51;95337.02;;;1.53;36.52
47080;BME280;33067;49.296;14.470;2024-01-15T02:15:17;95338.67;;;2.18;35.98
47080;BME280;33067;49.296;14.470;2024-01-15T02:17:57;95342.08;;;1.83;36.12
47080;BME280;33067;49.296;14.470;2024-01-15T02:20:15;95346.38;;;1.73;36.47
47080;BME280;33067;49.296;14.470;2024-01-15T02:22:34;95350.30;;;1.84;36.46
47080;BME280;33067;49.296;14.470;2024-01-15T02:25:00;95355.06;;;1.90;36.09
47080;BME280;33067;49.296;14.470;2024-01-15T02:27:30;95360.24;;;1.80;35.80
47080;BME280;33067;49.296;14.470;2024-01-15T02:29:51;95358.61;;;2.05;35.21
47080;BME280;33067;49.296;14.470;2024-01-15T02:32:16;95357.58;;;2.16;35.06
47080;BME280;33067;49.296;14.470;2024-01-15T02:34:42;95357.30;;;1.72;35.57
47080;BME280;33067;49.296;14.470;2024-01-15T02:37:07;95356.61;;;1.89;35.61
47080;BME280;33067;49.296;14.470;2024-01-15T02:39:32;95360.12;;;1.98;35.39
47080;BME280;33067;49.296;14.470;2024-01-15T02:41:58;95367.82;;;1.49;35.68
47080;BME280;33067;49.296;14.470;2024-01-15T02:44:24;95365.13;;;1.72;35.85
47080;BME280;33067;49.296;14.470;2024-01-15T02:46:49;95359.68;;;1.51;35.79
47080;BME280;33067;49.296;14.470;2024-01-15T02:49:15;95359.21;;;1.78;35.35
47080;BME280;33067;49.296;14.470;2024-01-15T02:51:40;95355.61;;;1.57;35.69
47080;BME280;33067;49.296;14.470;2024-01-15T02:54:07;95358.70;;;1.60;35.73
47080;BME280;33067;49.296;14.470;2024-01-15T02:56:32;95353.21;;;1.36;36.34
47080;BME280;33067;49.296;14.470;2024-01-15T02:58:57;95356.11;;;1.72;35.96
47080;BME280;33067;49.296;14.470;2024-01-15T03:01:23;95357.44;;;1.90;35.98
47080;BME280;33067;49.296;14.470;2024-01-15T03:03:49;95360.32;;;1.79;36.43
47080;BME280;33067;49.296;14.470;2024-01-15T03:06:15;95364.88;;;1.76;35.95
47080;BME280;33067;49.296;14.470;2024-01-15T03:08:40;95366.97;;;1.57;36.20
47080;BME280;33067;49.296;14.470;2024-01-15T03:13:01;95368.61;;;1.96;36.07
47080;BME280;33067;49.296;14.470;2024-01-15T03:15:26;95359.64;;;1.66;36.38
47080;BME280;33067;49.296;14.470;2024-01-15T03:17:51;95361.83;;;1.69;36.54
47080;BME280;33067;49.296;14.470;2024-01-15T03:20:19;95358.86;;;1.52;36.59
47080;BME280;33067;49.296;14.470;2024-01-15T03:22:42;95350.18;;;1.88;36.82
47080;BME280;33067;49.296;14.470;2024-01-15T03:25:08;95344.61;;;1.39;36.87
47080;BME280;33067;49.296;14.470;2024-01-15T03:27:33;95331.83;;;0.97;37.27
47080;BME280;33067;49.296;14.470;2024-01-15T03:29:59;95327.31;;;1.40;37.24
47080;BME280;33067;49.296;14.470;2024-01-15T03:32:26;95335.03;;;1.20;37.38
47080;BME280;33067;49.296;14.470;2024-01-15T03:34:50;95335.84;;;1.24;37.41
47080;BME280;33067;49.296;14.470;2024-01-15T03:37:16;95336.98;;;1.39;36.96
47080;BME280;33067;49.296;14.470;2024-01-15T03:39:41;95338.89;;;1.55;36.90
47080;BME280;33067;49.296;14.470;2024-01-15T03:42:07;95332.86;;;1.26;37.33
47080;BME280;33067;49.296;14.470;2024-01-15T03:44:33;95333.99;;;1.38;37.37
47080;BME280;33067;49.296;14.470;2024-01-15T03:46:58;95344.57;;;1.34;37.48
47080;BME280;33067;49.296;14.470;2024-01-15T03:49:25;95341.44;;;1.69;36.83
47080;BME280;33067;49.296;14.470;2024-01-15T03:51:50;95337.62;;;1.78;36.84
47080;BME280;33067;49.296;14.470;2024-01-15T03:54:15;95325.88;;;1.02;36.95
47080;BME280;33067;49.296;14.470;2024-01-15T03:56:41;95310.97;;;1.54;36.23
47080;BME280;33067;49.296;14.470;2024-01-15T03:59:06;95318.67;;;1.27;36.54
47080;BME280;33067;49.296;14.470;2024-01-15T04:01:31;95325.89;;;1.44;35.98
47080;BME280;33067;49.296;14.470;2024-01-15T04:03:56;95332.89;;;1.44;36.33
47080;BME280;33067;49.296;14.470;2024-01-15T04:06:22;95323.33;;;1.47;35.84
47080;BME280;33067;49.296;14.470;2024-01-15T04:08:47;95322.18;;;1.53;35.85
47080;BME280;33067;49.296;14.470;2024-01-15T04:11:12;95326.83;;;1.38;35.93
47080;BME280;33067;49.296;14.470;2024-01-15T04:13:38;95323.59;;;1.84;35.78
47080;BME280;33067;49.296;14.470;2024-01-15T04:16:04;95320.08;;;1.88;35.70
47080;BME280;33067;49.296;14.470;2024-01-15T04:18:29;95311.80;;;1.82;35.34
47080;BME280;33067;49.296;14.470;2024-01-15T04:20:55;95310.43;;;1.77;35.00
47080;BME280;33067;49.296;14.470;2024-01-15T04:23:21;95298.96;;;1.35;36.02
47080;BME280;33067;49.296;14.470;2024-01-15T04:25:46;95297.81;;;0.46;37.48
47080;BME280;33067;49.296;14.470;2024-01-15T04:28:11;95294.33;;;0.85;37.08
47080;BME280;33067;49.296;14.470;2024-01-15T04:30:37;95289.99;;;0.92;37.22
47080;BME280;33067;49.296;14.470;2024-01-15T04:33:02;95292.51;;;1.07;36.96
47080;BME280;33067;49.296;14.470;2024-01-15T04:35:28;95295.48;;;0.87;37.64
47080;BME280;33067;49.296;14.470;2024-01-15T04:37:53;95295.53;;;1.18;37.17
47080;BME280;33067;49.296;14.470;2024-01-15T04:40:19;95295.54;;;0.55;37.82
47080;BME280;33067;49.296;14.470;2024-01-15T04:42:44;95295.72;;;1.03;37.28
47080;BME280;33067;49.296;14.470;2024-01-15T04:45:10;95295.53;;;1.62;36.72
47080;BME280;33067;49.296;14.470;2024-01-15T04:47:35;95297.45;;;0.60;38.27
47080;BME280;33067;49.296;14.470;2024-01-15T04:50:00;95296.48;;;1.10;37.54
47080;BME280;33067;49.296;14.470;2024-01-15T04:52:25;95295.85;;;1.47;36.91
47080;BME280;33067;49.296;14.470;2024-01-15T04:54:50;95295.95;;;1.61;36.92
47080;BME280;33067;49.296;14.470;2024-01-15T04:57:16;95301.72;;;1.20;36.89
47080;BME280;33067;49.296;14.470;2024-01-15T04:59:42;95308.22;;;1.11;37.60
47080;BME280;33067;49.296;14.470;2024-01-15T05:02:07;95305.92;;;1.82;36.64
47080;BME280;33067;49.296;14.470;2024-01-15T05:04:32;95314.78;;;1.53;36.95
47080;BME280;33067;49.296;14.470;2024-01-15T05:06:57;95318.73;;;1.63;37.25
47080;BME280;33067;49.296;14.470;2024-01-15T05:09:22;95318.82;;;1.45;37.35
47080;BME280;33067;49.296;14.470;2024-01-15T05:11:48;95316.47;;;1.19;37.87
47080;BME280;33067;49.296;14.470;2024-01-15T05:14:13;95327.47;;;1.03;38.08
47080;BME280;33067;49.296;14.470;2024-01-15T05:16:44;95336.41;;;0.70;39.09
47080;BME280;33067;49.296;14.470;2024-01-15T05:19:04;95338.50;;;0.20;39.93
47080;BME280;33067;49.296;14.470;2024-01-15T05:21:29;95344.14;;;0.62;39.47
47080;BME280;33067;49.296;14.470;2024-01-15T05:23:55;95349.74;;;0.80;39.30
47080;BME280;33067;49.296;14.470;2024-01-15T05:26:20;95353.91;;;0.30;40.14
47080;BME280;33067;49.296;14.470;2024-01-15T05:28:46;95352.93;;;-0.48;41.53
47080;BME280;33067;49.296;14.470;2024-01-15T05:31:12;95363.99;;;-0.12;41.26
47080;BME280;33067;49.296;14.470;2024-01-15T05:33:37;95364.55;;;0.37;40.56
47080;BME280;33067;49.296;14.470;2024-01-15T05:36:03;95370.35;;;0.19;41.14
47080;BME280;33067;49.296;14.470;2024-01-15T05:38:27;95365.14;;;-0.06;41.64
47080;BME280;33067;49.296;14.470;2024-01-15T05:40:53;95355.18;;;0.31;41.13
47080;BME280;33067;49.296;14.470;2024-01-15T05:43:19;95352.61;;;-0.64;43.03
47080;BME280;33067;49.296;14.470;2024-01-15T05:45:44;95359.63;;;-0.30;42.35
47080;BME280;33067;49.296;14.470;2024-01-15T05:48:10;95364.03;;;-0.92;43.51
47080;BME280;33067;49.296;14.470;2024-01-15T05:50:35;95360.09;;;-0.54;43.24
47080;BME280;33067;49.296;14.470;2024-01-15T05:53:01;95362.47;;;-0.48;42.86
47080;BME280;33067;49.296;14.470;2024-01-15T05:55:26;95348.87;;;-0.96;44.07
47080;BME280;33067;49.296;14.470;2024-01-15T05:57:51;95357.52;;;-0.78;44.34
47080;BME280;33067;49.296;14.470;2024-01-15T06:00:17;95350.87;;;0.11;42.55
47080;BME280;33067;49.296;14.470;2024-01-15T06:02:42;95343.46;;;0.09;42.06
47080;BME280;33067;49.296;14.470;2024-01-15T06:05:08;95351.03;;;-0.07;42.41
47080;BME280;33067;49.296;14.470;2024-01-15T06:07:37;95355.78;;;-0.94;44.50
47080;BME280;33067;49.296;14.470;2024-01-15T06:09:59;95355.41;;;-1.13;44.22
47080;BME280;33067;49.296;14.470;2024-01-15T06:12:24;95362.17;;;-0.70;43.58
47080;BME280;33067;49.296;14.470;2024-01-15T06:14:50;95353.97;;;-0.66;43.38
47080;BME280;33067;49.296;14.470;2024-01-15T06:17:15;95360.21;;;-0.45;43.29
47080;BME280;33067;49.296;14.470;2024-01-15T06:19:41;95351.13;;;0.71;41.38
47080;BME280;33067;49.296;14.470;2024-01-15T06:22:06;95352.19;;;-0.32;42.82
47080;BME280;33067;49.296;14.470;2024-01-15T06:24:31;95362.16;;;0.27;41.68
47080;BME280;33067;49.296;14.470;2024-01-15T06:26:57;95354.97;;;-0.19;42.21
47080;BME280;33067;49.296;14.470;2024-01-15T06:29:25;95353.30;;;0.83;41.27
47080;BME280;33067;49.296;14.470;2024-01-15T06:31:47;95348.74;;;1.08;40.72
47080;BME280;33067;49.296;14.470;2024-01-15T06:34:13;95350.31;;;0.80;41.11
47080;BME280;33067;49.296;14.470;2024-01-15T06:36:38;95351.06;;;1.18;40.20
47080;BME280;33067;49.296;14.470;2024-01-15T06:39:03;95352.59;;;1.60;39.30
47080;BME280;33067;49.296;14.470;2024-01-15T06:41:29;95350.09;;;1.43;39.49
47080;BME280;33067;49.296;14.470;2024-01-15T06:43:55;95351.29;;;1.28;39.69
47080;BME280;33067;49.296;14.470;2024-01-15T06:46:20;95348.91;;;2.36;38.81
47080;BME280;33067;49.296;14.470;2024-01-15T06:48:45;95349.07;;;2.11;38.41
47080;BME280;33067;49.296;14.470;2024-01-15T06:51:12;95344.18;;;2.09;38.55
47080;BME280;33067;49.296;14.470;2024-01-15T06:53:37;95343.00;;;2.35;38.23
47080;BME280;33067;49.296;14.470;2024-01-15T06:56:02;95351.54;;;2.34;37.71
47080;BME280;33067;49.296;14.470;2024-01-15T06:58:28;95358.98;;;2.48;37.83
47080;BME280;33067;49.296;14.470;2024-01-15T07:00:53;95363.37;;;2.36;37.78
47080;BME280;33067;49.296;14.470;2024-01-15T07:03:18;95364.10;;;2.38;37.68
47080;BME280;33067;49.296;14.470;2024-01-15T07:05:44;95368.55;;;2.89;37.22
47080;BME280;33067;49.296;14.470;2024-01-15T07:08:09;95372.62;;;2.48;36.83
47080;BME280;33067;49.296;14.470;2024-01-15T07:10:35;95377.37;;;2.26;37.49
47080;BME280;33067;49.296;14.470;2024-01-15T07:13:00;95379.42;;;2.73;37.28
47080;BME280;33067;49.296;14.470;2024-01-15T07:15:25;95379.96;;;2.07;38.26
47080;BME280;33067;49.296;14.470;2024-01-15T07:17:51;95384.77;;;2.48;37.93
47080;BME280;33067;49.296;14.470;2024-01-15T07:20:16;95384.32;;;2.68;37.00
47080;BME280;33067;49.296;14.470;2024-01-15T07:22:41;95386.80;;;2.77;36.87
47080;BME280;33067;49.296;14.470;2024-01-15T07:25:06;95381.62;;;3.03;36.57
47080;BME280;33067;49.296;14.470;2024-01-15T07:27:32;95386.39;;;3.12;36.66
47080;BME280;33067;49.296;14.470;2024-01-15T07:29:58;95383.99;;;3.12;36.34
47080;BME280;33067;49.296;14.470;2024-01-15T07:32:23;95386.02;;;3.19;36.15
47080;BME280;33067;49.296;14.470;2024-01-15T07:34:48;95381.30;;;3.39;36.00
47080;BME280;33067;49.296;14.470;2024-01-15T07:37:14;95385.66;;;3.06;36.27
47080;BME280;33067;49.296;14.470;2024-01-15T07:39:39;95390.63;;;3.08;36.49
47080;BME280;33067;49.296;14.470;2024-01-15T07:42:06;95385.77;;;3.29;35.91
47080;BME280;33067;49.296;14.470;2024-01-15T07:44:30;95383.73;;;3.23;35.96
47080;BME280;33067;49.296;14.470;2024-01-15T07:46:56;95388.29;;;3.32;35.85
47080;BME280;33067;49.296;14.470;2024-01-15T07:49:21;95387.70;;;3.26;36.09
47080;BME280;33067;49.296;14.470;2024-01-15T07:51:46;95388.59;;;3.67;35.48
47080;BME280;33067;49.296;14.470;2024-01-15T07:54:12;95389.49;;;3.45;35.64
47080;BME280;33067;49.296;14.470;2024-01-15T07:59:09;95388.64;;;3.29;35.71
47080;BME280;33067;49.296;14.470;2024-01-15T08:01:29;95387.01;;;2.29;36.72
47080;BME280;33067;49.296;14.470;2024-01-15T08:03:54;95385.99;;;2.80;36.28
47080;BME280;33067;49.296;14.470;2024-01-15T08:06:19;95387.30;;;3.17;35.91
47080;BME280;33067;49.296;14.470;2024-01-15T08:08:45;95385.61;;;2.72;36.50
47080;BME280;33067;49.296;14.470;2024-01-15T08:11:11;95389.43;;;2.97;36.29
47080;BME280;33067;49.296;14.470;2024-01-15T08:13:36;95386.35;;;2.66;36.40
47080;BME280;33067;49.296;14.470;2024-01-15T08:16:01;95389.61;;;2.77;37.06
47080;BME280;33067;49.296;14.470;2024-01-15T08:18:27;95383.60;;;2.53;37.36
47080;BME280;33067;49.296;14.470;2024-01-15T08:20:52;95378.08;;;3.14;36.55
47080;BME280;33067;49.296;14.470;2024-01-15T08:23:17;95373.22;;;2.82;36.57
47080;BME280;33067;49.296;14.470;2024-01-15T08:25:43;95375.14;;;3.20;36.23
47080;BME280;33067;49.296;14.470;2024-01-15T08:28:08;95377.68;;;2.71;36.85
47080;BME280;33067;49.296;14.470;2024-01-15T08:30:33;95377.78;;;2.48;37.03
47080;BME280;33067;49.296;14.470;2024-01-15T08:33:00;95375.71;;;2.97;36.48
47080;BME280;33067;49.296;14.470;2024-01-15T08:35:24;95380.45;;;2.77;37.13
47080;BME280;33067;49.296;14.470;2024-01-15T08:37:50;95379.15;;;3.06;37.02
47080;BME280;33067;49.296;14.470;2024-01-15T08:40:16;95382.35;;;2.33;37.70
47080;BME280;33067;49.296;14.470;2024-01-15T08:42:41;95367.65;;;1.56;38.76
47080;BME280;33067;49.296;14.470;2024-01-15T08:45:07;95360.18;;;2.18;38.40
47080;BME280;33067;49.296;14.470;2024-01-15T08:47:31;95361.33;;;2.84;37.55
47080;BME280;33067;49.296;14.470;2024-01-15T08:49:57;95361.84;;;1.75;38.31
47080;BME280;33067;49.296;14.470;2024-01-15T08:52:23;95367.23;;;2.18;38.44
47080;BME280;33067;49.296;14.470;2024-01-15T08:54:48;95363.01;;;2.41;37.70
47080;BME280;33067;49.296;14.470;2024-01-15T08:57:14;95361.93;;;2.46;37.94
47080;BME280;33067;49.296;14.470;2024-01-15T08:59:39;95359.33;;;2.49;37.72
47080;BME280;33067;49.296;14.470;2024-01-15T09:02:05;95363.73;;;2.76;37.60
47080;BME280;33067;49.296;14.470;2024-01-15T09:04:30;95364.25;;;2.76;37.38
47080;BME280;33067;49.296;14.470;2024-01-15T09:06:56;95365.69;;;1.97;38.00
47080;BME280;33067;49.296;14.470;2024-01-15T09:09:21;95361.97;;;1.79;38.26
47080;BME280;33067;49.296;14.470;2024-01-15T09:11:46;95364.12;;;2.67;37.25
47080;BME280;33067;49.296;14.470;2024-01-15T09:14:12;95368.87;;;2.38;37.49
47080;BME280;33067;49.296;14.470;2024-01-15T09:16:37;95371.03;;;2.68;37.85
47080;BME280;33067;49.296;14.470;2024-01-15T09:19:03;95376.56;;;2.42;37.80
47080;BME280;33067;49.296;14.470;2024-01-15T09:21:28;95375.36;;;2.68;36.90
47080;BME280;33067;49.296;14.470;2024-01-15T09:23:54;95382.94;;;2.15;37.75
47080;BME280;33067;49.296;14.470;2024-01-15T09:26:20;95380.11;;;3.05;36.76
47080;BME280;33067;49.296;14.470;2024-01-15T09:28:46;95375.99;;;2.98;37.17
47080;BME280;33067;49.296;14.470;2024-01-15T09:31:11;95373.42;;;2.16;37.90
47080;BME280;33067;49.296;14.470;2024-01-15T09:33:37;95369.48;;;2.09;38.27
47080;BME280;33067;49.296;14.470;2024-01-15T09:36:03;95362.90;;;2.09;38.24
47080;BME280;33067;49.296;14.470;2024-01-15T09:38:28;95366.51;;;1.85;38.34
47080;BME280;33067;49.296;14.470;2024-01-15T09:40:53;95364.38;;;2.32;38.17
47080;BME280;33067;49.296;14.470;2024-01-15T09:43:19;95355.19;;;2.82;37.15
47080;BME280;33067;49.296;14.470;2024-01-15T09:45:44;95351.27;;;3.13;36.68
47080;BME280;33067;49.296;14.470;2024-01-15T09:48:09;95347.33;;;2.83;36.85
47080;BME280;33067;49.296;14.470;2024-01-15T09:50:35;95345.97;;;3.51;36.49
47080;BME280;33067;49.296;14.470;2024-01-15T09:53:01;95354.65;;;1.77;38.73
47080;BME280;33067;49.296;14.470;2024-01-15T09:55:26;95349.35;;;2.49;37.81
47080;BME280;33067;49.296;14.470;2024-01-15T09:57:52;95348.66;;;2.74;37.65
47080;BME280;33067;49.296;14.470;2024-01-15T10:00:18;95346.76;;;2.11;38.58
47080;BME280;33067;49.296;14.470;2024-01-15T10:02:42;95345.68;;;2.46;38.07
47080;BME280;33067;49.296;14.470;2024-01-15T10:05:08;95343.19;;;1.94;38.76
47080;BME280;33067;49.296;14.470;2024-01-15T10:07:35;95341.30;;;2.10;38.64
47080;BME280;33067;49.296;14.470;2024-01-15T10:09:58;95337.79;;;3.25;37.20
47080;BME280;33067;49.296;14.470;2024-01-15T10:12:24;95336.27;;;2.89;37.41
47080;BME280;33067;49.296;14.470;2024-01-15T10:14:50;95335.60;;;2.39;37.93
47080;BME280;33067;49.296;14.470;2024-01-15T10:17:15;95337.16;;;2.45;37.80
47080;BME280;33067;49.296;14.470;2024-01-15T10:19:40;95342.94;;;2.54;37.75
47080;BME280;33067;49.296;14.470;2024-01-15T10:22:06;95341.22;;;3.04;37.44
47080;BME280;33067;49.296;14.470;2024-01-15T10:24:31;95333.10;;;4.02;36.41
47080;BME280;33067;49.296;14.470;2024-01-15T10:27:04;95335.14;;;2.92;37.64
47080;BME280;33067;49.296;14.470;2024-01-15T10:29:21;95328.98;;;2.58;37.92
47080;BME280;33067;49.296;14.470;2024-01-15T10:31:47;95329.52;;;3.05;37.37
47080;BME280;33067;49.296;14.470;2024-01-15T10:34:13;95332.50;;;2.01;38.80
47080;BME280;33067;49.296;14.470;2024-01-15T10:36:39;95327.63;;;2.64;38.49
47080;BME280;33067;49.296;14.470;2024-01-15T10:39:04;95326.98;;;2.56;38.79
47080;BME280;33067;49.296;14.470;2024-01-15T10:41:30;95327.40;;;1.74;39.27
47080;BME280;33067;49.296;14.470;2024-01-15T10:43:54;95321.15;;;1.23;40.01
47080;BME280;33067;49.296;14.470;2024-01-15T10:46:20;95319.01;;;1.03;40.65
47080;BME280;33067;49.296;14.470;2024-01-15T10:48:46;95316.23;;;2.11;39.56
47080;BME280;33067;49.296;14.470;2024-01-15T10:51:11;95310.75;;;1.72;40.45
47080;BME280;33067;49.296;14.470;2024-01-15T10:53:38;95316.40;;;1.50;41.04
47080;BME280;33067;49.296;14.470;2024-01-15T10:56:05;95315.88;;;1.75;40.97
47080;BME280;33067;49.296;14.470;2024-01-15T10:58:30;95306.90;;;1.36;40.84
47080;BME280;33067;49.296;14.470;2024-01-15T11:00:54;95317.42;;;1.50;41.14
47080;BME280;33067;49.296;14.470;2024-01-15T11:03:19;95311.25;;;1.61;41.09
47080;BME280;33067;49.296;14.470;2024-01-15T11:05:45;95312.45;;;1.73;40.64
47080;BME280;33067;49.296;14.470;2024-01-15T11:08:11;95309.10;;;1.99;40.75
47080;BME280;33067;49.296;14.470;2024-01-15T11:10:41;95318.46;;;2.44;39.84
47080;BME280;33067;49.296;14.470;2024-01-15T11:13:02;95312.20;;;2.73;39.51
47080;BME280;33067;49.296;14.470;2024-01-15T11:15:26;95311.11;;;2.08;40.54
47080;BME280;33067;49.296;14.470;2024-01-15T11:17:59;95307.41;;;2.41;40.14
47080;BME280;33067;49.296;14.470;2024-01-15T11:20:17;95307.80;;;1.68;40.84
47080;BME280;33067;49.296;14.470;2024-01-15T11:22:49;95312.99;;;1.63;40.91
47080;BME280;33067;49.296;14.470;2024-01-15T11:25:13;95310.77;;;2.11;39.83
47080;BME280;33067;49.296;14.470;2024-01-15T11:27:40;95307.57;;;2.70;39.55
47080;BME280;33067;49.296;14.470;2024-01-15T11:30:03;95303.01;;;2.55;39.60
47080;BME280;33067;49.296;14.470;2024-01-15T11:34:53;95293.65;;;1.98;40.78
47080;BME280;33067;49.296;14.470;2024-01-15T11:37:15;95300.22;;;2.82;39.58
47080;BME280;33067;49.296;14.470;2024-01-15T11:39:41;95300.67;;;2.57;40.23
47080;BME280;33067;49.296;14.470;2024-01-15T11:42:06;95300.16;;;2.76;39.62
47080;BME280;33067;49.296;14.470;2024-01-15T11:44:32;95294.14;;;3.26;39.04
47080;BME280;33067;49.296;14.470;2024-01-15T11:46:59;95296.11;;;1.92;40.34
47080;BME280;33067;49.296;14.470;2024-01-15T11:49:33;95296.27;;;3.13;38.71
47080;BME280;33067;49.296;14.470;2024-01-15T11:51:50;95293.30;;;3.35;38.40
47080;BME280;33067;49.296;14.470;2024-01-15T11:54:15;95286.96;;;3.75;37.85
47080;BME280;33067;49.296;14.470;2024-01-15T11:56:41;95289.20;;;3.54;38.42
47080;BME280;33067;49.296;14.470;2024-01-15T11:59:06;95294.12;;;2.92;38.70
47080;BME280;33067;49.296;14.470;2024-01-15T12:01:31;95299.67;;;2.89;39.14
47080;BME280;33067;49.296;14.470;2024-01-15T12:03:56;95297.39;;;2.22;40.98
47080;BME280;33067;49.296;14.470;2024-01-15T12:06:21;95304.70;;;2.72;40.57
47080;BME280;33067;49.296;14.470;2024-01-15T12:08:46;95300.14;;;2.93;40.32
47080;BME280;33067;49.296;14.470;2024-01-15T12:11:14;95293.52;;;2.70;40.75
47080;BME280;33067;49.296;14.470;2024-01-15T12:13:37;95291.74;;;2.54;40.72
47080;BME280;33067;49.296;14.470;2024-01-15T12:16:04;95290.58;;;2.17;40.68
47080;BME280;33067;49.296;14.470;2024-01-15T12:18:29;95286.20;;;2.69;39.99
47080;BME280;33067;49.296;14.470;2024-01-15T12:20:56;95284.06;;;2.81;39.79
47080;BME280;33067;49.296;14.470;2024-01-15T12:23:21;95282.97;;;3.34;39.59
47080;BME280;33067;49.296;14.470;2024-01-15T12:25:46;95279.46;;;3.10;39.20
47080;BME280;33067;49.296;14.470;2024-01-15T12:28:11;95278.44;;;2.95;38.91
47080;BME280;33067;49.296;14.470;2024-01-15T12:30:36;95277.50;;;3.32;38.65
47080;BME280;33067;49.296;14.470;2024-01-15T12:33:02;95286.10;;;2.41;39.47
47080;BME280;33067;49.296;14.470;2024-01-15T12:35:27;95286.47;;;2.69;39.44
47080;BME280;33067;49.296;14.470;2024-01-15T12:37:54;95277.32;;;3.56;37.68
47080;BME280;33067;49.296;14.470;2024-01-15T12:40:21;95283.48;;;3.54;38.04
47080;BME280;33067;49.296;14.470;2024-01-15T12:42:44;95282.64;;;3.73;37.53
47080;BME280;33067;49.296;14.470;2024-01-15T12:45:11;95281.67;;;3.79;37.15
47080;BME280;33067;49.296;14.470;2024-01-15T12:47:37;95285.70;;;3.32;37.99
47080;BME280;33067;49.296;14.470;2024-01-15T12:50:00;95279.59;;;3.79;37.18
47080;BME280;33067;49.296;14.470;2024-01-15T12:52:27;95276.48;;;3.66;37.70
47080;BME280;33067;49.296;14.470;2024-01-15T12:54:51;95277.12;;;3.35;38.17
47080;BME280;33067;49.296;14.470;2024-01-15T12:57:16;95273.53;;;3.49;37.60